sensor_id;sensor_type;location;lat;lon;timestamp;temperature;humidity
63219;DHT22;49320;52.512;13.448;2023-06-22T00:01:21;24.80;57.60
63219;DHT22;49320;52.512;13.448;2023-06-22T00:03:49;24.80;58.20
63219;DHT22;49320;52.512;13.448;2023-06-22T00:06:16;24.80;58.20
63219;DHT22;49320;52.512;13.448;2023-06-22T00:08:43;24.80;58.30
63219;DHT22;49320;52.512;13.448;2023-06-22T00:11:10;24.70;58.30
63219;DHT22;49320;52.512;13.448;2023-06-22T00:13:38;24.70;58.00
63219;DHT22;49320;52.512;13.448;2023-06-22T00:16:05;26.60;59.60
63219;DHT22;49320;52.512;13.448;2023-06-22T00:18:32;24.70;58.50
63219;DHT22;49320;52.512;13.448;2023-06-22T00:20:59;24.60;58.60
63219;DHT22;49320;52.512;13.448;2023-06-22T00:23:26;24.60;58.70
63219;DHT22;49320;52.512;13.448;2023-06-22T00:25:53;24.60;58.70
63219;DHT22;49320;52.512;13.448;2023-06-22T00:28:20;24.60;58.70
63219;DHT22;49320;52.512;13.448;2023-06-22T00:30:48;24.50;58.70
63219;DHT22;49320;52.512;13.448;2023-06-22T00:33:16;24.50;58.80
63219;DHT22;49320;52.512;13.448;2023-06-22T00:35:43;24.50;58.90
63219;DHT22;49320;52.512;13.448;2023-06-22T00:38:11;24.10;58.80
63219;DHT22;49320;52.512;13.448;2023-06-22T00:40:38;24.40;59.50
63219;DHT22;49320;52.512;13.448;2023-06-22T00:43:05;24.40;59.10
63219;DHT22;49320;52.512;13.448;2023-06-22T00:45:32;24.30;59.20
63219;DHT22;49320;52.512;13.448;2023-06-22T00:48:00;24.30;58.70
63219;DHT22;49320;52.512;13.448;2023-06-22T00:50:30;24.30;59.40
63219;DHT22;49320;52.512;13.448;2023-06-22T00:53:05;24.30;59.40
63219;DHT22;49320;52.512;13.448;2023-06-22T00:55:38;24.20;59.60
63219;DHT22;49320;52.512;13.448;2023-06-22T00:58:11;24.20;58.90
63219;DHT22;49320;52.512;13.448;2023-06-22T01:00:39;24.10;59.40
63219;DHT22;49320;52.512;13.448;2023-06-22T01:03:07;24.10;59.20
63219;DHT22;49320;52.512;13.448;2023-06-22T01:05:39;24.10;59.70
63219;DHT22;49320;52.512;13.448;2023-06-22T01:13:51;24.00;60.10
63219;DHT22;49320;52.512;13.448;2023-06-22T01:16:27;23.80;60.30
63219;DHT22;49320;52.512;13.448;2023-06-22T01:21:46;24.00;60.40
63219;DHT22;49320;52.512;13.448;2023-06-22T01:24:23;23.90;59.80
63219;DHT22;49320;52.512;13.448;2023-06-22T01:29:56;23.90;61.50
63219;DHT22;49320;52.512;13.448;2023-06-22T01:32:32;23.90;60.80
63219;DHT22;49320;52.512;13.448;2023-06-22T01:35:03;23.90;61.00
63219;DHT22;49320;52.512;13.448;2023-06-22T01:37:34;23.90;61.10
63219;DHT22;49320;52.512;13.448;2023-06-22T01:40:02;23.80;61.20
63219;DHT22;49320;52.512;13.448;2023-06-22T01:42:32;23.80;61.20
63219;DHT22;49320;52.512;13.448;2023-06-22T01:45:00;23.80;61.40
63219;DHT22;49320;52.512;13.448;2023-06-22T01:47:28;23.80;61.00
63219;DHT22;49320;52.512;13.448;2023-06-22T01:49:56;23.80;61.20
63219;DHT22;49320;52.512;13.448;2023-06-22T01:52:23;23.70;61.70
63219;DHT22;49320;52.512;13.448;2023-06-22T01:54:50;23.80;61.90
63219;DHT22;49320;52.512;13.448;2023-06-22T01:57:16;23.70;61.90
63219;DHT22;49320;52.512;13.448;2023-06-22T01:59:57;23.70;62.10
63219;DHT22;49320;52.512;13.448;2023-06-22T02:02:32;23.60;62.70
63219;DHT22;49320;52.512;13.448;2023-06-22T02:05:06;23.70;62.40
63219;DHT22;49320;52.512;13.448;2023-06-22T02:07:44;23.60;62.50
63219;DHT22;49320;52.512;13.448;2023-06-22T02:10:16;24.00;63.20
63219;DHT22;49320;52.512;13.448;2023-06-22T02:12:47;23.60;62.90
63219;DHT22;49320;52.512;13.448;2023-06-22T02:15:15;23.60;62.90
63219;DHT22;49320;52.512;13.448;2023-06-22T02:17:42;23.50;62.90
63219;DHT22;49320;52.512;13.448;2023-06-22T02:20:15;23.60;63.10
63219;DHT22;49320;52.512;13.448;2023-06-22T02:22:42;23.50;63.40
63219;DHT22;49320;52.512;13.448;2023-06-22T02:25:09;23.50;63.20
63219;DHT22;49320;52.512;13.448;2023-06-22T02:27:36;23.50;63.40
63219;DHT22;49320;52.512;13.448;2023-06-22T02:32:37;23.50;63.40
63219;DHT22;49320;52.512;13.448;2023-06-22T02:35:04;23.50;63.60
63219;DHT22;49320;52.512;13.448;2023-06-22T02:37:32;23.50;64.20
63219;DHT22;49320;52.512;13.448;2023-06-22T02:39:59;23.40;63.70
63219;DHT22;49320;52.512;13.448;2023-06-22T02:42:26;23.40;63.70
63219;DHT22;49320;52.512;13.448;2023-06-22T02:44:53;23.50;64.60
63219;DHT22;49320;52.512;13.448;2023-06-22T02:47:19;23.50;64.60
63219;DHT22;49320;52.512;13.448;2023-06-22T02:49:46;23.50;64.10
63219;DHT22;49320;52.512;13.448;2023-06-22T02:52:13;23.50;64.80
63219;DHT22;49320;52.512;13.448;2023-06-22T02:54:40;23.50;64.90
63219;DHT22;49320;52.512;13.448;2023-06-22T02:57:07;23.60;65.00
63219;DHT22;49320;52.512;13.448;2023-06-22T02:59:40;23.60;65.10
63219;DHT22;49320;52.512;13.448;2023-06-22T03:02:09;23.60;65.10
63219;DHT22;49320;52.512;13.448;2023-06-22T03:04:36;23.60;65.20
63219;DHT22;49320;52.512;13.448;2023-06-22T03:07:03;23.70;65.30
63219;DHT22;49320;52.512;13.448;2023-06-22T03:09:31;23.70;65.30
63219;DHT22;49320;52.512;13.448;2023-06-22T03:14:25;23.70;64.60
63219;DHT22;49320;52.512;13.448;2023-06-22T03:16:52;23.70;65.20
63219;DHT22;49320;52.512;13.448;2023-06-22T03:19:19;23.70;65.20
63219;DHT22;49320;52.512;13.448;2023-06-22T03:21:48;23.70;65.10
63219;DHT22;49320;52.512;13.448;2023-06-22T03:24:15;23.70;65.00
63219;DHT22;49320;52.512;13.448;2023-06-22T03:26:41;23.70;64.90
63219;DHT22;49320;52.512;13.448;2023-06-22T03:29:08;23.70;64.80
63219;DHT22;49320;52.512;13.448;2023-06-22T03:31:35;23.80;64.60
63219;DHT22;49320;52.512;13.448;2023-06-22T03:34:02;23.80;64.50
63219;DHT22;49320;52.512;13.448;2023-06-22T03:36:29;23.90;64.30
63219;DHT22;49320;52.512;13.448;2023-06-22T03:38:56;23.90;64.20
63219;DHT22;49320;52.512;13.448;2023-06-22T03:41:23;23.90;64.20
63219;DHT22;49320;52.512;13.448;2023-06-22T03:43:51;24.00;64.20
63219;DHT22;49320;52.512;13.448;2023-06-22T03:46:17;24.00;64.20
63219;DHT22;49320;52.512;13.448;2023-06-22T03:48:45;24.00;64.10
63219;DHT22;49320;52.512;13.448;2023-06-22T03:51:11;24.00;64.00
63219;DHT22;49320;52.512;13.448;2023-06-22T03:53:38;24.00;63.90
63219;DHT22;49320;52.512;13.448;2023-06-22T03:56:05;23.90;63.70
63219;DHT22;49320;52.512;13.448;2023-06-22T03:58:32;24.00;63.70
63219;DHT22;49320;52.512;13.448;2023-06-22T04:01:00;24.00;63.70
63219;DHT22;49320;52.512;13.448;2023-06-22T04:03:27;24.10;63.60
63219;DHT22;49320;52.512;13.448;2023-06-22T04:05:54;24.00;63.40
63219;DHT22;49320;52.512;13.448;2023-06-22T04:08:20;24.10;63.20
63219;DHT22;49320;52.512;13.448;2023-06-22T04:10:47;24.10;63.10
63219;DHT22;49320;52.512;13.448;2023-06-22T04:13:14;24.60;63.30
63219;DHT22;49320;52.512;13.448;2023-06-22T04:15:41;24.10;62.80
63219;DHT22;49320;52.512;13.448;2023-06-22T04:18:08;24.10;62.70
63219;DHT22;49320;52.512;13.448;2023-06-22T04:20:34;24.10;62.60
63219;DHT22;49320;52.512;13.448;2023-06-22T04:25:29;24.20;62.10
63219;DHT22;49320;52.512;13.448;2023-06-22T04:27:56;24.20;62.70
63219;DHT22;49320;52.512;13.448;2023-06-22T04:30:23;24.20;62.60
63219;DHT22;49320;52.512;13.448;2023-06-22T04:32:50;24.20;62.50
63219;DHT22;49320;52.512;13.448;2023-06-22T04:35:25;24.20;62.20
63219;DHT22;49320;52.512;13.448;2023-06-22T04:37:53;24.30;62.20
63219;DHT22;49320;52.512;13.448;2023-06-22T04:40:24;24.30;62.10
63219;DHT22;49320;52.512;13.448;2023-06-22T04:45:20;24.40;60.80
63219;DHT22;49320;52.512;13.448;2023-06-22T04:47:48;24.40;61.30
63219;DHT22;49320;52.512;13.448;2023-06-22T04:50:16;24.50;61.20
63219;DHT22;49320;52.512;13.448;2023-06-22T04:52:44;24.50;61.10
63219;DHT22;49320;52.512;13.448;2023-06-22T04:55:12;24.50;60.20
63219;DHT22;49320;52.512;13.448;2023-06-22T04:57:41;24.50;60.90
63219;DHT22;49320;52.512;13.448;2023-06-22T05:00:11;24.50;60.60
63219;DHT22;49320;52.512;13.448;2023-06-22T05:02:40;24.70;60.00
63219;DHT22;49320;52.512;13.448;2023-06-22T05:05:07;24.70;60.60
63219;DHT22;49320;52.512;13.448;2023-06-22T05:07:35;24.80;60.50
63219;DHT22;49320;52.512;13.448;2023-06-22T05:10:03;24.90;60.40
63219;DHT22;49320;52.512;13.448;2023-06-22T05:12:30;25.00;60.10
63219;DHT22;49320;52.512;13.448;2023-06-22T05:14:57;25.10;59.90
63219;DHT22;49320;52.512;13.448;2023-06-22T05:17:24;25.20;59.80
63219;DHT22;49320;52.512;13.448;2023-06-22T05:19:52;25.30;59.80
63219;DHT22;49320;52.512;13.448;2023-06-22T05:22:19;25.40;59.80
63219;DHT22;49320;52.512;13.448;2023-06-22T05:24:46;25.60;59.50
63219;DHT22;49320;52.512;13.448;2023-06-22T05:27:14;25.80;59.30
63219;DHT22;49320;52.512;13.448;2023-06-22T05:29:41;26.00;59.00
63219;DHT22;49320;52.512;13.448;2023-06-22T05:32:09;26.10;57.80
63219;DHT22;49320;52.512;13.448;2023-06-22T05:34:36;26.20;58.70
63219;DHT22;49320;52.512;13.448;2023-06-22T05:37:03;26.30;58.50
63219;DHT22;49320;52.512;13.448;2023-06-22T05:39:30;26.40;58.40
63219;DHT22;49320;52.512;13.448;2023-06-22T05:41:57;26.60;58.20
63219;DHT22;49320;52.512;13.448;2023-06-22T05:44:24;26.60;58.00
63219;DHT22;49320;52.512;13.448;2023-06-22T05:49:18;26.80;57.20
63219;DHT22;49320;52.512;13.448;2023-06-22T05:51:45;26.80;56.80
63219;DHT22;49320;52.512;13.448;2023-06-22T05:54:12;26.80;57.60
63219;DHT22;49320;52.512;13.448;2023-06-22T05:56:40;26.80;57.50
63219;DHT22;49320;52.512;13.448;2023-06-22T05:59:07;26.80;57.40
63219;DHT22;49320;52.512;13.448;2023-06-22T06:01:34;26.90;57.40
63219;DHT22;49320;52.512;13.448;2023-06-22T06:04:03;26.90;57.10
63219;DHT22;49320;52.512;13.448;2023-06-22T06:06:31;27.00;57.20
63219;DHT22;49320;52.512;13.448;2023-06-22T06:08:58;27.00;57.60
63219;DHT22;49320;52.512;13.448;2023-06-22T06:13:53;27.20;56.10
63219;DHT22;49320;52.512;13.448;2023-06-22T06:16:20;27.30;56.00
63219;DHT22;49320;52.512;13.448;2023-06-22T06:18:47;27.30;55.90
63219;DHT22;49320;52.512;13.448;2023-06-22T06:21:16;27.20;55.80
63219;DHT22;49320;52.512;13.448;2023-06-22T06:23:43;27.30;56.00
63219;DHT22;49320;52.512;13.448;2023-06-22T06:26:10;27.30;55.80
63219;DHT22;49320;52.512;13.448;2023-06-22T06:28:37;27.40;56.00
63219;DHT22;49320;52.512;13.448;2023-06-22T06:31:04;27.40;55.70
63219;DHT22;49320;52.512;13.448;2023-06-22T06:33:34;27.50;55.70
63219;DHT22;49320;52.512;13.448;2023-06-22T06:36:01;27.60;55.10
63219;DHT22;49320;52.512;13.448;2023-06-22T06:38:30;27.60;55.70
63219;DHT22;49320;52.512;13.448;2023-06-22T06:40:58;27.80;53.20
63219;DHT22;49320;52.512;13.448;2023-06-22T06:43:25;27.80;55.10
63219;DHT22;49320;52.512;13.448;2023-06-22T06:45:52;27.90;54.50
63219;DHT22;49320;52.512;13.448;2023-06-22T06:48:19;27.80;54.90
63219;DHT22;49320;52.512;13.448;2023-06-22T06:50:46;27.90;54.80
63219;DHT22;49320;52.512;13.448;2023-06-22T06:53:13;28.00;53.80
63219;DHT22;49320;52.512;13.448;2023-06-22T06:58:07;28.10;53.70
63219;DHT22;49320;52.512;13.448;2023-06-22T07:00:36;28.10;53.20
63219;DHT22;49320;52.512;13.448;2023-06-22T07:03:04;28.10;53.80
63219;DHT22;49320;52.512;13.448;2023-06-22T07:05:31;28.10;53.50
63219;DHT22;49320;52.512;13.448;2023-06-22T07:07:58;27.60;53.00
63219;DHT22;49320;52.512;13.448;2023-06-22T07:10:26;28.10;53.20
63219;DHT22;49320;52.512;13.448;2023-06-22T07:12:53;28.10;53.20
63219;DHT22;49320;52.512;13.448;2023-06-22T07:15:20;28.10;53.00
63219;DHT22;49320;52.512;13.448;2023-06-22T07:17:47;28.10;53.00
63219;DHT22;49320;52.512;13.448;2023-06-22T07:20:13;28.20;53.00
63219;DHT22;49320;52.512;13.448;2023-06-22T07:22:43;28.20;52.70
63219;DHT22;49320;52.512;13.448;2023-06-22T07:25:14;28.30;52.60
63219;DHT22;49320;52.512;13.448;2023-06-22T07:27:47;28.30;52.50
63219;DHT22;49320;52.512;13.448;2023-06-22T07:30:24;28.40;52.30
63219;DHT22;49320;52.512;13.448;2023-06-22T07:32:51;28.50;52.40
63219;DHT22;49320;52.512;13.448;2023-06-22T07:35:18;28.80;51.60
63219;DHT22;49320;52.512;13.448;2023-06-22T07:37:45;28.80;52.30
63219;DHT22;49320;52.512;13.448;2023-06-22T07:40:13;29.00;51.40
63219;DHT22;49320;52.512;13.448;2023-06-22T07:42:40;29.00;51.90
63219;DHT22;49320;52.512;13.448;2023-06-22T07:45:07;29.30;49.60
63219;DHT22;49320;52.512;13.448;2023-06-22T07:47:35;29.30;50.70
63219;DHT22;49320;52.512;13.448;2023-06-22T07:50:03;29.40;50.50
63219;DHT22;49320;52.512;13.448;2023-06-22T07:52:31;29.40;50.10
63219;DHT22;49320;52.512;13.448;2023-06-22T07:54:58;29.50;50.00
63219;DHT22;49320;52.512;13.448;2023-06-22T07:57:25;29.60;49.80
63219;DHT22;49320;52.512;13.448;2023-06-22T08:00:00;29.60;49.30
63219;DHT22;49320;52.512;13.448;2023-06-22T08:02:30;29.60;49.20
63219;DHT22;49320;52.512;13.448;2023-06-22T08:04:57;29.70;48.80
63219;DHT22;49320;52.512;13.448;2023-06-22T08:07:36;29.70;48.80
63219;DHT22;49320;52.512;13.448;2023-06-22T08:10:10;29.80;48.70
63219;DHT22;49320;52.512;13.448;2023-06-22T08:12:39;29.80;48.10
63219;DHT22;49320;52.512;13.448;2023-06-22T08:15:06;30.00;47.30
63219;DHT22;49320;52.512;13.448;2023-06-22T08:17:34;29.90;47.70
63219;DHT22;49320;52.512;13.448;2023-06-22T08:20:01;30.00;47.80
63219;DHT22;49320;52.512;13.448;2023-06-22T08:22:31;30.00;47.80
63219;DHT22;49320;52.512;13.448;2023-06-22T08:24:59;30.00;47.70
63219;DHT22;49320;52.512;13.448;2023-06-22T08:27:26;30.10;47.50
63219;DHT22;49320;52.512;13.448;2023-06-22T08:29:54;30.20;47.30
63219;DHT22;49320;52.512;13.448;2023-06-22T08:32:28;30.20;46.80
63219;DHT22;49320;52.512;13.448;2023-06-22T08:34:56;30.30;46.40
63219;DHT22;49320;52.512;13.448;2023-06-22T08:37:24;30.30;46.50
63219;DHT22;49320;52.512;13.448;2023-06-22T08:39:59;30.40;45.80
63219;DHT22;49320;52.512;13.448;2023-06-22T08:42:27;30.40;46.70
63219;DHT22;49320;52.512;13.448;2023-06-22T08:44:54;30.40;46.80
63219;DHT22;49320;52.512;13.448;2023-06-22T08:47:22;30.40;47.00
63219;DHT22;49320;52.512;13.448;2023-06-22T08:49:49;30.50;45.10
63219;DHT22;49320;52.512;13.448;2023-06-22T08:52:18;30.40;46.60
63219;DHT22;49320;52.512;13.448;2023-06-22T08:54:47;30.50;46.50
63219;DHT22;49320;52.512;13.448;2023-06-22T08:57:13;30.50;46.00
63219;DHT22;49320;52.512;13.448;2023-06-22T08:59:40;30.60;46.10
63219;DHT22;49320;52.512;13.448;2023-06-22T09:02:07;30.60;46.20
63219;DHT22;49320;52.512;13.448;2023-06-22T09:04:34;30.50;46.20
63219;DHT22;49320;52.512;13.448;2023-06-22T09:07:01;30.70;46.20
63219;DHT22;49320;52.512;13.448;2023-06-22T09:09:30;30.70;46.10
63219;DHT22;49320;52.512;13.448;2023-06-22T09:11:56;30.80;46.20
63219;DHT22;49320;52.512;13.448;2023-06-22T09:14:23;30.90;45.90
63219;DHT22;49320;52.512;13.448;2023-06-22T09:16:50;30.90;46.00
63219;DHT22;49320;52.512;13.448;2023-06-22T09:19:17;30.90;46.00
63219;DHT22;49320;52.512;13.448;2023-06-22T09:21:44;30.90;45.70
63219;DHT22;49320;52.512;13.448;2023-06-22T09:24:10;31.00;45.50
63219;DHT22;49320;52.512;13.448;2023-06-22T09:26:37;31.00;45.70
63219;DHT22;49320;52.512;13.448;2023-06-22T09:29:07;31.00;45.10
63219;DHT22;49320;52.512;13.448;2023-06-22T09:31:34;31.10;44.60
63219;DHT22;49320;52.512;13.448;2023-06-22T09:34:01;31.20;44.90
63219;DHT22;49320;52.512;13.448;2023-06-22T09:36:28;31.20;44.60
63219;DHT22;49320;52.512;13.448;2023-06-22T09:39:18;31.20;44.60
63219;DHT22;49320;52.512;13.448;2023-06-22T09:42:09;31.30;44.80
63219;DHT22;49320;52.512;13.448;2023-06-22T09:44:36;31.40;44.40
63219;DHT22;49320;52.512;13.448;2023-06-22T09:47:03;31.40;44.50
63219;DHT22;49320;52.512;13.448;2023-06-22T09:49:31;31.40;44.30
63219;DHT22;49320;52.512;13.448;2023-06-22T09:52:13;31.50;44.50
63219;DHT22;49320;52.512;13.448;2023-06-22T09:54:40;31.50;43.70
63219;DHT22;49320;52.512;13.448;2023-06-22T09:57:07;31.50;44.30
63219;DHT22;49320;52.512;13.448;2023-06-22T09:59:34;31.50;44.10
63219;DHT22;49320;52.512;13.448;2023-06-22T10:02:01;31.50;44.20
63219;DHT22;49320;52.512;13.448;2023-06-22T10:04:28;31.50;43.90
63219;DHT22;49320;52.512;13.448;2023-06-22T10:06:55;31.50;43.80
63219;DHT22;49320;52.512;13.448;2023-06-22T10:09:22;31.50;44.00
63219;DHT22;49320;52.512;13.448;2023-06-22T10:11:49;31.50;44.00
63219;DHT22;49320;52.512;13.448;2023-06-22T10:14:16;31.50;44.20
63219;DHT22;49320;52.512;13.448;2023-06-22T10:16:44;31.50;44.30
63219;DHT22;49320;52.512;13.448;2023-06-22T10:19:11;31.50;43.90
63219;DHT22;49320;52.512;13.448;2023-06-22T10:21:38;31.40;43.90
63219;DHT22;49320;52.512;13.448;2023-06-22T10:24:04;31.50;44.00
63219;DHT22;49320;52.512;13.448;2023-06-22T10:26:36;31.50;44.00
63219;DHT22;49320;52.512;13.448;2023-06-22T10:29:03;31.50;44.00
63219;DHT22;49320;52.512;13.448;2023-06-22T10:31:43;31.50;43.90
63219;DHT22;49320;52.512;13.448;2023-06-22T10:34:09;31.50;43.70
63219;DHT22;49320;52.512;13.448;2023-06-22T10:36:36;31.50;43.80
63219;DHT22;49320;52.512;13.448;2023-06-22T10:39:03;31.40;43.80
63219;DHT22;49320;52.512;13.448;2023-06-22T10:41:30;31.40;43.80
63219;DHT22;49320;52.512;13.448;2023-06-22T10:43:57;31.40;43.60
63219;DHT22;49320;52.512;13.448;2023-06-22T10:46:25;31.40;43.60
63219;DHT22;49320;52.512;13.448;2023-06-22T10:48:52;31.20;43.50
63219;DHT22;49320;52.512;13.448;2023-06-22T10:51:21;31.30;43.30
63219;DHT22;49320;52.512;13.448;2023-06-22T10:53:48;31.30;43.80
63219;DHT22;49320;52.512;13.448;2023-06-22T10:56:15;31.30;43.70
63219;DHT22;49320;52.512;13.448;2023-06-22T10:58:44;31.40;43.60
63219;DHT22;49320;52.512;13.448;2023-06-22T11:01:11;31.30;43.50
63219;DHT22;49320;52.512;13.448;2023-06-22T11:03:58;31.40;43.50
63219;DHT22;49320;52.512;13.448;2023-06-22T11:06:25;31.40;43.40
63219;DHT22;49320;52.512;13.448;2023-06-22T11:08:52;31.30;43.40
63219;DHT22;49320;52.512;13.448;2023-06-22T11:11:37;31.40;43.30
63219;DHT22;49320;52.512;13.448;2023-06-22T11:14:04;31.40;42.50
63219;DHT22;49320;52.512;13.448;2023-06-22T11:16:31;31.40;42.50
63219;DHT22;49320;52.512;13.448;2023-06-22T11:18:58;31.40;43.00
63219;DHT22;49320;52.512;13.448;2023-06-22T11:21:25;31.30;43.10
63219;DHT22;49320;52.512;13.448;2023-06-22T11:23:52;31.40;43.20
63219;DHT22;49320;52.512;13.448;2023-06-22T11:26:19;31.40;43.00
63219;DHT22;49320;52.512;13.448;2023-06-22T11:28:47;31.50;43.10
63219;DHT22;49320;52.512;13.448;2023-06-22T11:31:14;31.50;42.90
63219;DHT22;49320;52.512;13.448;2023-06-22T11:33:52;31.50;42.70
63219;DHT22;49320;52.512;13.448;2023-06-22T11:36:19;31.60;42.60
63219;DHT22;49320;52.512;13.448;2023-06-22T11:38:46;31.60;42.50
63219;DHT22;49320;52.512;13.448;2023-06-22T11:41:13;31.60;42.40
63219;DHT22;49320;52.512;13.448;2023-06-22T11:43:40;31.70;42.30
63219;DHT22;49320;52.512;13.448;2023-06-22T11:46:07;31.70;42.00
63219;DHT22;49320;52.512;13.448;2023-06-22T11:48:34;31.80;41.20
63219;DHT22;49320;52.512;13.448;2023-06-22T11:51:02;31.70;42.00
63219;DHT22;49320;52.512;13.448;2023-06-22T11:53:29;31.80;42.00
63219;DHT22;49320;52.512;13.448;2023-06-22T11:55:57;31.80;42.00
63219;DHT22;49320;52.512;13.448;2023-06-22T11:58:24;31.80;41.90
63219;DHT22;49320;52.512;13.448;2023-06-22T12:00:51;31.80;41.70
63219;DHT22;49320;52.512;13.448;2023-06-22T12:03:19;31.80;42.40
63219;DHT22;49320;52.512;13.448;2023-06-22T12:05:50;31.90;42.00
63219;DHT22;49320;52.512;13.448;2023-06-22T12:08:18;32.00;40.90
63219;DHT22;49320;52.512;13.448;2023-06-22T12:10:46;32.00;41.50
63219;DHT22;49320;52.512;13.448;2023-06-22T12:13:12;32.00;41.40
63219;DHT22;49320;52.512;13.448;2023-06-22T12:15:39;32.10;41.40
63219;DHT22;49320;52.512;13.448;2023-06-22T12:18:06;32.20;41.40
63219;DHT22;49320;52.512;13.448;2023-06-22T12:20:33;32.20;41.40
63219;DHT22;49320;52.512;13.448;2023-06-22T12:23:01;32.30;40.90
63219;DHT22;49320;52.512;13.448;2023-06-22T12:25:28;32.30;40.80
63219;DHT22;49320;52.512;13.448;2023-06-22T12:27:54;32.40;40.90
63219;DHT22;49320;52.512;13.448;2023-06-22T12:30:21;32.40;41.00
63219;DHT22;49320;52.512;13.448;2023-06-22T12:32:48;32.40;41.10
63219;DHT22;49320;52.512;13.448;2023-06-22T12:35:16;32.40;40.80
63219;DHT22;49320;52.512;13.448;2023-06-22T12:37:43;32.50;40.50
63219;DHT22;49320;52.512;13.448;2023-06-22T12:40:10;32.60;40.90
63219;DHT22;49320;52.512;13.448;2023-06-22T12:42:37;32.50;40.70
63219;DHT22;49320;52.512;13.448;2023-06-22T12:45:05;32.50;40.60
63219;DHT22;49320;52.512;13.448;2023-06-22T12:47:32;32.50;40.70
63219;DHT22;49320;52.512;13.448;2023-06-22T12:49:59;32.50;40.70
63219;DHT22;49320;52.512;13.448;2023-06-22T12:52:25;32.50;40.50
63219;DHT22;49320;52.512;13.448;2023-06-22T12:54:52;32.50;40.70
63219;DHT22;49320;52.512;13.448;2023-06-22T12:57:22;32.50;40.60
63219;DHT22;49320;52.512;13.448;2023-06-22T12:59:49;32.40;40.40
63219;DHT22;49320;52.512;13.448;2023-06-22T13:02:15;32.50;40.40
63219;DHT22;49320;52.512;13.448;2023-06-22T13:04:43;32.50;40.60
63219;DHT22;49320;52.512;13.448;2023-06-22T13:07:10;32.50;40.70
63219;DHT22;49320;52.512;13.448;2023-06-22T13:09:49;32.40;41.20
63219;DHT22;49320;52.512;13.448;2023-06-22T13:12:20;32.40;40.50
63219;DHT22;49320;52.512;13.448;2023-06-22T13:14:48;32.40;40.50
63219;DHT22;49320;52.512;13.448;2023-06-22T13:19:42;32.40;40.10
63219;DHT22;49320;52.512;13.448;2023-06-22T13:24:56;32.40;39.80
63219;DHT22;49320;52.512;13.448;2023-06-22T13:27:23;32.40;40.50
63219;DHT22;49320;52.512;13.448;2023-06-22T13:29:51;32.50;40.50
63219;DHT22;49320;52.512;13.448;2023-06-22T13:32:17;32.50;40.60
63219;DHT22;49320;52.512;13.448;2023-06-22T13:34:44;32.50;40.50
63219;DHT22;49320;52.512;13.448;2023-06-22T13:37:11;32.50;40.50
63219;DHT22;49320;52.512;13.448;2023-06-22T13:39:38;32.40;40.50
63219;DHT22;49320;52.512;13.448;2023-06-22T13:42:05;32.40;40.40
63219;DHT22;49320;52.512;13.448;2023-06-22T13:44:32;32.40;40.50
63219;DHT22;49320;52.512;13.448;2023-06-22T13:46:59;32.20;40.40
63219;DHT22;49320;52.512;13.448;2023-06-22T13:49:26;32.40;40.60
63219;DHT22;49320;52.512;13.448;2023-06-22T13:51:53;32.10;40.40
63219;DHT22;49320;52.512;13.448;2023-06-22T13:54:20;32.40;40.60
63219;DHT22;49320;52.512;13.448;2023-06-22T13:56:49;32.50;40.60
63219;DHT22;49320;52.512;13.448;2023-06-22T13:59:16;32.50;40.60
63219;DHT22;49320;52.512;13.448;2023-06-22T14:01:43;32.50;40.60
63219;DHT22;49320;52.512;13.448;2023-06-22T14:04:10;32.50;40.60
63219;DHT22;49320;52.512;13.448;2023-06-22T14:06:38;32.50;40.50
63219;DHT22;49320;52.512;13.448;2023-06-22T14:09:05;32.50;40.40
63219;DHT22;49320;52.512;13.448;2023-06-22T14:11:32;32.50;40.50
63219;DHT22;49320;52.512;13.448;2023-06-22T14:13:58;32.50;40.40
63219;DHT22;49320;52.512;13.448;2023-06-22T14:16:26;32.50;40.40
63219;DHT22;49320;52.512;13.448;2023-06-22T14:18:53;32.50;40.30
63219;DHT22;49320;52.512;13.448;2023-06-22T14:21:23;32.40;40.20
63219;DHT22;49320;52.512;13.448;2023-06-22T14:23:50;32.40;40.20
63219;DHT22;49320;52.512;13.448;2023-06-22T14:26:17;32.30;40.30
63219;DHT22;49320;52.512;13.448;2023-06-22T14:28:45;32.30;40.40
63219;DHT22;49320;52.512;13.448;2023-06-22T14:31:15;32.30;40.40
63219;DHT22;49320;52.512;13.448;2023-06-22T14:33:47;32.30;40.40
63219;DHT22;49320;52.512;13.448;2023-06-22T14:36:15;32.30;40.20
63219;DHT22;49320;52.512;13.448;2023-06-22T14:38:44;32.30;40.50
63219;DHT22;49320;52.512;13.448;2023-06-22T14:41:13;32.20;40.50
63219;DHT22;49320;52.512;13.448;2023-06-22T14:43:46;32.30;40.60
63219;DHT22;49320;52.512;13.448;2023-06-22T14:46:15;32.30;40.40
63219;DHT22;49320;52.512;13.448;2023-06-22T14:48:42;32.30;40.50
63219;DHT22;49320;52.512;13.448;2023-06-22T14:51:10;32.20;40.30
63219;DHT22;49320;52.512;13.448;2023-06-22T14:53:43;32.20;40.40
63219;DHT22;49320;52.512;13.448;2023-06-22T14:56:11;32.30;40.50
63219;DHT22;49320;52.512;13.448;2023-06-22T14:58:41;32.30;40.40
63219;DHT22;49320;52.512;13.448;2023-06-22T15:01:13;32.30;40.10
63219;DHT22;49320;52.512;13.448;2023-06-22T15:03:40;32.30;40.50
63219;DHT22;49320;52.512;13.448;2023-06-22T15:06:08;32.30;40.40
63219;DHT22;49320;52.512;13.448;2023-06-22T15:08:37;32.30;40.40
63219;DHT22;49320;52.512;13.448;2023-06-22T15:11:05;32.30;40.40
63219;DHT22;49320;52.512;13.448;2023-06-22T15:13:32;32.30;40.40
63219;DHT22;49320;52.512;13.448;2023-06-22T15:16:03;32.30;40.40
63219;DHT22;49320;52.512;13.448;2023-06-22T15:21:00;32.30;39.80
63219;DHT22;49320;52.512;13.448;2023-06-22T15:23:28;32.30;40.40
63219;DHT22;49320;52.512;13.448;2023-06-22T15:25:56;32.30;40.40
63219;DHT22;49320;52.512;13.448;2023-06-22T15:28:24;32.30;40.40
63219;DHT22;49320;52.512;13.448;2023-06-22T15:30:51;32.30;40.30
63219;DHT22;49320;52.512;13.448;2023-06-22T15:33:19;31.60;39.90
63219;DHT22;49320;52.512;13.448;2023-06-22T15:35:46;32.30;40.40
63219;DHT22;49320;52.512;13.448;2023-06-22T15:38:13;32.30;40.40
63219;DHT22;49320;52.512;13.448;2023-06-22T15:40:39;32.30;40.40
63219;DHT22;49320;52.512;13.448;2023-06-22T15:43:10;32.30;40.30
63219;DHT22;49320;52.512;13.448;2023-06-22T15:45:38;32.30;40.40
63219;DHT22;49320;52.512;13.448;2023-06-22T15:48:05;32.20;40.00
63219;DHT22;49320;52.512;13.448;2023-06-22T15:50:31;32.20;40.50
63219;DHT22;49320;52.512;13.448;2023-06-22T15:52:59;32.20;40.60
63219;DHT22;49320;52.512;13.448;2023-06-22T15:55:25;32.20;40.70
63219;DHT22;49320;52.512;13.448;2023-06-22T15:57:53;32.30;40.90